sensor_id;sensor_type;location;lat;lon;timestamp;P1;durP1;ratioP1;P2;durP2;ratioP2
16512;SDS011;8369;48.030;11.598;2023-08-30T00:01:07;5.90;;;5.10;;
16512;SDS011;8369;48.030;11.598;2023-08-30T00:03:34;5.90;;;5.30;;
16512;SDS011;8369;48.030;11.598;2023-08-30T00:06:03;6.83;;;5.40;;
16512;SDS011;8369;48.030;11.598;2023-08-30T00:08:30;6.20;;;5.40;;
16512;SDS011;8369;48.030;11.598;2023-08-30T00:10:56;6.83;;;5.60;;
16512;SDS011;8369;48.030;11.598;2023-08-30T00:13:29;5.50;;;4.83;;
16512;SDS011;8369;48.030;11.598;2023-08-30T00:15:56;6.77;;;5.77;;
16512;SDS011;8369;48.030;11.598;2023-08-30T00:18:23;5.47;;;4.90;;
16512;SDS011;8369;48.030;11.598;2023-08-30T00:20:50;5.77;;;5.03;;
16512;SDS011;8369;48.030;11.598;2023-08-30T00:23:16;5.90;;;5.10;;
16512;SDS011;8369;48.030;11.598;2023-08-30T00:25:42;5.57;;;5.07;;
16512;SDS011;8369;48.030;11.598;2023-08-30T00:28:09;6.00;;;5.40;;
16512;SDS011;8369;48.030;11.598;2023-08-30T00:30:36;8.43;;;5.60;;
16512;SDS011;8369;48.030;11.598;2023-08-30T00:33:02;5.30;;;4.80;;
16512;SDS011;8369;48.030;11.598;2023-08-30T00:35:29;6.83;;;5.50;;
16512;SDS011;8369;48.030;11.598;2023-08-30T00:37:57;5.83;;;4.90;;
16512;SDS011;8369;48.030;11.598;2023-08-30T00:40:23;6.47;;;5.17;;
16512;SDS011;8369;48.030;11.598;2023-08-30T00:42:50;5.63;;;5.00;;
16512;SDS011;8369;48.030;11.598;2023-08-30T00:45:17;5.93;;;5.33;;
16512;SDS011;8369;48.030;11.598;2023-08-30T00:47:43;7.40;;;5.20;;
16512;SDS011;8369;48.030;11.598;2023-08-30T00:50:10;7.20;;;5.67;;
16512;SDS011;8369;48.030;11.598;2023-08-30T00:52:37;5.80;;;5.20;;
16512;SDS011;8369;48.030;11.598;2023-08-30T00:55:04;5.90;;;5.30;;
16512;SDS011;8369;48.030;11.598;2023-08-30T00:57:32;6.23;;;5.40;;
16512;SDS011;8369;48.030;11.598;2023-08-30T00:59:58;6.37;;;5.47;;
16512;SDS011;8369;48.030;11.598;2023-08-30T01:02:25;5.93;;;5.10;;
16512;SDS011;8369;48.030;11.598;2023-08-30T01:04:52;5.87;;;5.13;;
16512;SDS011;8369;48.030;11.598;2023-08-30T01:07:18;4.63;;;4.20;;
16512;SDS011;8369;48.030;11.598;2023-08-30T01:09:47;5.47;;;4.63;;
16512;SDS011;8369;48.030;11.598;2023-08-30T01:12:15;5.93;;;5.13;;
16512;SDS011;8369;48.030;11.598;2023-08-30T01:15:06;5.50;;;4.90;;
16512;SDS011;8369;48.030;11.598;2023-08-30T01:18:00;5.80;;;5.20;;
16512;SDS011;8369;48.030;11.598;2023-08-30T01:20:29;5.43;;;4.80;;
16512;SDS011;8369;48.030;11.598;2023-08-30T01:23:03;5.83;;;4.80;;
16512;SDS011;8369;48.030;11.598;2023-08-30T01:25:43;7.10;;;5.50;;
16512;SDS011;8369;48.030;11.598;2023-08-30T01:28:31;7.17;;;4.90;;
16512;SDS011;8369;48.030;11.598;2023-08-30T01:30:59;6.13;;;5.10;;
16512;SDS011;8369;48.030;11.598;2023-08-30T01:33:26;6.70;;;5.30;;
16512;SDS011;8369;48.030;11.598;2023-08-30T01:35:53;5.07;;;4.60;;
16512;SDS011;8369;48.030;11.598;2023-08-30T01:38:22;5.97;;;5.10;;
16512;SDS011;8369;48.030;11.598;2023-08-30T01:40:49;9.47;;;4.70;;
16512;SDS011;8369;48.030;11.598;2023-08-30T01:43:16;5.73;;;5.00;;
16512;SDS011;8369;48.030;11.598;2023-08-30T01:45:44;4.83;;;4.33;;
16512;SDS011;8369;48.030;11.598;2023-08-30T01:48:11;6.87;;;4.57;;
16512;SDS011;8369;48.030;11.598;2023-08-30T01:50:42;4.70;;;4.20;;
16512;SDS011;8369;48.030;11.598;2023-08-30T01:53:10;5.33;;;4.57;;
16512;SDS011;8369;48.030;11.598;2023-08-30T01:55:41;5.87;;;4.80;;
16512;SDS011;8369;48.030;11.598;2023-08-30T01:58:08;6.23;;;4.80;;
16512;SDS011;8369;48.030;11.598;2023-08-30T02:00:35;5.20;;;4.30;;
16512;SDS011;8369;48.030;11.598;2023-08-30T02:03:09;5.03;;;4.20;;
16512;SDS011;8369;48.030;11.598;2023-08-30T02:05:35;5.67;;;4.80;;
16512;SDS011;8369;48.030;11.598;2023-08-30T02:08:08;5.07;;;4.57;;
16512;SDS011;8369;48.030;11.598;2023-08-30T02:10:41;4.93;;;4.00;;
16512;SDS011;8369;48.030;11.598;2023-08-30T02:13:25;4.60;;;4.20;;
16512;SDS011;8369;48.030;11.598;2023-08-30T02:15:52;5.83;;;4.30;;
16512;SDS011;8369;48.030;11.598;2023-08-30T02:18:23;4.37;;;3.97;;
16512;SDS011;8369;48.030;11.598;2023-08-30T02:20:53;5.33;;;4.10;;
16512;SDS011;8369;48.030;11.598;2023-08-30T02:23:25;5.67;;;3.83;;
16512;SDS011;8369;48.030;11.598;2023-08-30T02:25:51;4.60;;;4.10;;
16512;SDS011;8369;48.030;11.598;2023-08-30T02:28:19;6.63;;;3.60;;
16512;SDS011;8369;48.030;11.598;2023-08-30T02:30:45;4.03;;;3.47;;
16512;SDS011;8369;48.030;11.598;2023-08-30T02:33:12;6.40;;;3.90;;
16512;SDS011;8369;48.030;11.598;2023-08-30T02:35:39;4.00;;;3.60;;
16512;SDS011;8369;48.030;11.598;2023-08-30T02:38:05;4.37;;;3.67;;
16512;SDS011;8369;48.030;11.598;2023-08-30T02:40:32;4.10;;;3.50;;
16512;SDS011;8369;48.030;11.598;2023-08-30T02:42:58;4.17;;;3.60;;
16512;SDS011;8369;48.030;11.598;2023-08-30T02:45:27;3.90;;;3.50;;
16512;SDS011;8369;48.030;11.598;2023-08-30T02:47:57;3.77;;;3.47;;
16512;SDS011;8369;48.030;11.598;2023-08-30T02:50:24;4.67;;;3.43;;
16512;SDS011;8369;48.030;11.598;2023-08-30T02:52:51;5.23;;;3.10;;
16512;SDS011;8369;48.030;11.598;2023-08-30T02:55:18;3.47;;;2.97;;
16512;SDS011;8369;48.030;11.598;2023-08-30T02:57:44;4.03;;;2.83;;
16512;SDS011;8369;48.030;11.598;2023-08-30T03:00:13;3.40;;;3.00;;
16512;SDS011;8369;48.030;11.598;2023-08-30T03:02:40;3.47;;;2.80;;
16512;SDS011;8369;48.030;11.598;2023-08-30T03:05:08;3.07;;;2.60;;
16512;SDS011;8369;48.030;11.598;2023-08-30T03:07:34;3.47;;;2.70;;
16512;SDS011;8369;48.030;11.598;2023-08-30T03:10:01;3.13;;;2.83;;
16512;SDS011;8369;48.030;11.598;2023-08-30T03:12:28;3.47;;;3.10;;
16512;SDS011;8369;48.030;11.598;2023-08-30T03:14:55;4.97;;;3.10;;
16512;SDS011;8369;48.030;11.598;2023-08-30T03:17:21;3.10;;;2.80;;
16512;SDS011;8369;48.030;11.598;2023-08-30T03:19:47;2.87;;;2.63;;
16512;SDS011;8369;48.030;11.598;2023-08-30T03:22:13;2.77;;;2.47;;
16512;SDS011;8369;48.030;11.598;2023-08-30T03:24:39;2.77;;;2.43;;
16512;SDS011;8369;48.030;11.598;2023-08-30T03:27:06;2.73;;;2.53;;
16512;SDS011;8369;48.030;11.598;2023-08-30T03:32:55;2.90;;;2.60;;
16512;SDS011;8369;48.030;11.598;2023-08-30T03:35:22;4.00;;;2.53;;
16512;SDS011;8369;48.030;11.598;2023-08-30T03:37:48;3.37;;;2.60;;
16512;SDS011;8369;48.030;11.598;2023-08-30T03:40:14;2.80;;;2.60;;
16512;SDS011;8369;48.030;11.598;2023-08-30T03:42:40;3.00;;;2.70;;
16512;SDS011;8369;48.030;11.598;2023-08-30T03:45:08;2.53;;;2.33;;
16512;SDS011;8369;48.030;11.598;2023-08-30T03:47:34;2.53;;;2.33;;
16512;SDS011;8369;48.030;11.598;2023-08-30T03:50:00;2.23;;;2.03;;
16512;SDS011;8369;48.030;11.598;2023-08-30T03:52:30;2.60;;;2.40;;
16512;SDS011;8369;48.030;11.598;2023-08-30T03:54:56;2.30;;;2.10;;
16512;SDS011;8369;48.030;11.598;2023-08-30T03:57:22;2.87;;;2.10;;
16512;SDS011;8369;48.030;11.598;2023-08-30T03:59:49;2.10;;;1.90;;
16512;SDS011;8369;48.030;11.598;2023-08-30T04:02:16;2.43;;;2.20;;
16512;SDS011;8369;48.030;11.598;2023-08-30T04:04:42;2.27;;;2.00;;
16512;SDS011;8369;48.030;11.598;2023-08-30T04:07:09;2.70;;;2.20;;
16512;SDS011;8369;48.030;11.598;2023-08-30T04:09:35;2.30;;;2.10;;
16512;SDS011;8369;48.030;11.598;2023-08-30T04:12:01;2.43;;;2.23;;
16512;SDS011;8369;48.030;11.598;2023-08-30T04:14:31;2.63;;;2.03;;
16512;SDS011;8369;48.030;11.598;2023-08-30T04:16:57;2.40;;;2.20;;
16512;SDS011;8369;48.030;11.598;2023-08-30T04:19:23;2.20;;;1.70;;
16512;SDS011;8369;48.030;11.598;2023-08-30T04:21:50;3.80;;;2.20;;
16512;SDS011;8369;48.030;11.598;2023-08-30T04:24:15;3.50;;;2.13;;
16512;SDS011;8369;48.030;11.598;2023-08-30T04:26:43;2.57;;;2.00;;
16512;SDS011;8369;48.030;11.598;2023-08-30T04:29:09;2.13;;;1.80;;
16512;SDS011;8369;48.030;11.598;2023-08-30T04:31:36;2.33;;;2.13;;
16512;SDS011;8369;48.030;11.598;2023-08-30T04:34:02;2.33;;;2.00;;
16512;SDS011;8369;48.030;11.598;2023-08-30T04:36:28;2.10;;;1.90;;
16512;SDS011;8369;48.030;11.598;2023-08-30T04:38:54;2.53;;;2.20;;
16512;SDS011;8369;48.030;11.598;2023-08-30T04:41:22;2.03;;;1.83;;
16512;SDS011;8369;48.030;11.598;2023-08-30T04:43:48;2.57;;;1.80;;
16512;SDS011;8369;48.030;11.598;2023-08-30T04:46:14;2.30;;;2.10;;
16512;SDS011;8369;48.030;11.598;2023-08-30T04:48:41;1.97;;;1.77;;
16512;SDS011;8369;48.030;11.598;2023-08-30T04:51:07;2.60;;;2.10;;
16512;SDS011;8369;48.030;11.598;2023-08-30T04:53:35;2.20;;;1.83;;
16512;SDS011;8369;48.030;11.598;2023-08-30T04:56:09;2.17;;;1.83;;
16512;SDS011;8369;48.030;11.598;2023-08-30T04:58:39;3.10;;;1.93;;
16512;SDS011;8369;48.030;11.598;2023-08-30T05:01:05;2.53;;;2.20;;
16512;SDS011;8369;48.030;11.598;2023-08-30T05:03:32;3.27;;;2.40;;
16512;SDS011;8369;48.030;11.598;2023-08-30T05:05:58;2.43;;;2.07;;
16512;SDS011;8369;48.030;11.598;2023-08-30T05:08:24;2.70;;;2.10;;
16512;SDS011;8369;48.030;11.598;2023-08-30T05:10:53;2.33;;;2.13;;
16512;SDS011;8369;48.030;11.598;2023-08-30T05:13:21;2.37;;;2.17;;
16512;SDS011;8369;48.030;11.598;2023-08-30T05:15:48;2.93;;;2.27;;
16512;SDS011;8369;48.030;11.598;2023-08-30T05:18:14;3.13;;;2.40;;
16512;SDS011;8369;48.030;11.598;2023-08-30T05:20:40;5.53;;;2.93;;
16512;SDS011;8369;48.030;11.598;2023-08-30T05:23:22;2.40;;;2.20;;
16512;SDS011;8369;48.030;11.598;2023-08-30T05:25:48;2.30;;;2.10;;
16512;SDS011;8369;48.030;11.598;2023-08-30T05:28:14;3.00;;;2.40;;
16512;SDS011;8369;48.030;11.598;2023-08-30T05:30:41;3.20;;;2.57;;
16512;SDS011;8369;48.030;11.598;2023-08-30T05:33:09;2.33;;;2.13;;
16512;SDS011;8369;48.030;11.598;2023-08-30T05:35:35;2.73;;;2.30;;
16512;SDS011;8369;48.030;11.598;2023-08-30T05:38:03;2.30;;;2.10;;
16512;SDS011;8369;48.030;11.598;2023-08-30T05:40:29;3.33;;;2.57;;
16512;SDS011;8369;48.030;11.598;2023-08-30T05:42:55;2.47;;;2.27;;
16512;SDS011;8369;48.030;11.598;2023-08-30T05:45:21;3.70;;;2.37;;
16512;SDS011;8369;48.030;11.598;2023-08-30T05:47:48;2.87;;;2.00;;
16512;SDS011;8369;48.030;11.598;2023-08-30T05:50:15;3.90;;;2.20;;
16512;SDS011;8369;48.030;11.598;2023-08-30T05:52:41;2.40;;;2.20;;
16512;SDS011;8369;48.030;11.598;2023-08-30T05:55:09;4.57;;;2.60;;
16512;SDS011;8369;48.030;11.598;2023-08-30T05:57:36;2.20;;;1.80;;
16512;SDS011;8369;48.030;11.598;2023-08-30T06:00:02;2.47;;;2.00;;
16512;SDS011;8369;48.030;11.598;2023-08-30T06:02:30;2.30;;;2.10;;
16512;SDS011;8369;48.030;11.598;2023-08-30T06:04:56;2.60;;;2.40;;
16512;SDS011;8369;48.030;11.598;2023-08-30T06:07:22;2.43;;;2.23;;
16512;SDS011;8369;48.030;11.598;2023-08-30T06:09:49;2.70;;;2.50;;
16512;SDS011;8369;48.030;11.598;2023-08-30T06:12:16;2.87;;;2.60;;
16512;SDS011;8369;48.030;11.598;2023-08-30T06:14:42;2.90;;;2.60;;
16512;SDS011;8369;48.030;11.598;2023-08-30T06:17:16;3.20;;;2.90;;
16512;SDS011;8369;48.030;11.598;2023-08-30T06:19:42;2.93;;;2.60;;
16512;SDS011;8369;48.030;11.598;2023-08-30T06:22:10;3.47;;;3.10;;
16512;SDS011;8369;48.030;11.598;2023-08-30T06:24:37;5.50;;;4.10;;
16512;SDS011;8369;48.030;11.598;2023-08-30T06:27:03;4.80;;;3.77;;
16512;SDS011;8369;48.030;11.598;2023-08-30T06:29:30;5.03;;;4.00;;
16512;SDS011;8369;48.030;11.598;2023-08-30T06:31:57;3.97;;;3.40;;
16512;SDS011;8369;48.030;11.598;2023-08-30T06:34:24;3.80;;;3.37;;
16512;SDS011;8369;48.030;11.598;2023-08-30T06:36:51;4.17;;;3.40;;
16512;SDS011;8369;48.030;11.598;2023-08-30T06:39:17;2.63;;;2.43;;
16512;SDS011;8369;48.030;11.598;2023-08-30T06:41:44;2.60;;;2.37;;
16512;SDS011;8369;48.030;11.598;2023-08-30T06:44:10;2.57;;;2.37;;
16512;SDS011;8369;48.030;11.598;2023-08-30T06:46:36;2.30;;;2.10;;
16512;SDS011;8369;48.030;11.598;2023-08-30T06:49:03;2.90;;;2.67;;
16512;SDS011;8369;48.030;11.598;2023-08-30T06:51:32;4.47;;;2.90;;
16512;SDS011;8369;48.030;11.598;2023-08-30T06:53:59;3.37;;;2.87;;
16512;SDS011;8369;48.030;11.598;2023-08-30T06:56:26;2.87;;;2.57;;
16512;SDS011;8369;48.030;11.598;2023-08-30T06:58:53;2.83;;;2.50;;
16512;SDS011;8369;48.030;11.598;2023-08-30T07:01:19;3.07;;;2.77;;
16512;SDS011;8369;48.030;11.598;2023-08-30T07:03:45;4.80;;;2.70;;
16512;SDS011;8369;48.030;11.598;2023-08-30T07:06:12;2.93;;;2.70;;
16512;SDS011;8369;48.030;11.598;2023-08-30T07:08:40;2.57;;;2.37;;
16512;SDS011;8369;48.030;11.598;2023-08-30T07:11:05;2.80;;;2.50;;
16512;SDS011;8369;48.030;11.598;2023-08-30T07:13:32;3.10;;;2.80;;
16512;SDS011;8369;48.030;11.598;2023-08-30T07:15:58;2.47;;;2.10;;
16512;SDS011;8369;48.030;11.598;2023-08-30T07:18:24;3.10;;;2.57;;
16512;SDS011;8369;48.030;11.598;2023-08-30T07:20:50;2.77;;;2.57;;
16512;SDS011;8369;48.030;11.598;2023-08-30T07:23:18;2.67;;;2.47;;
16512;SDS011;8369;48.030;11.598;2023-08-30T07:25:44;5.33;;;2.70;;
16512;SDS011;8369;48.030;11.598;2023-08-30T07:28:11;2.63;;;2.33;;
16512;SDS011;8369;48.030;11.598;2023-08-30T07:30:37;3.00;;;2.70;;
16512;SDS011;8369;48.030;11.598;2023-08-30T07:33:04;4.37;;;3.10;;
16512;SDS011;8369;48.030;11.598;2023-08-30T07:35:30;3.27;;;2.70;;
16512;SDS011;8369;48.030;11.598;2023-08-30T07:37:58;2.43;;;2.23;;
16512;SDS011;8369;48.030;11.598;2023-08-30T07:40:25;4.93;;;2.77;;
16512;SDS011;8369;48.030;11.598;2023-08-30T07:42:54;2.90;;;2.60;;
16512;SDS011;8369;48.030;11.598;2023-08-30T07:45:24;2.93;;;2.60;;
16512;SDS011;8369;48.030;11.598;2023-08-30T07:47:50;2.73;;;2.53;;
16512;SDS011;8369;48.030;11.598;2023-08-30T07:50:16;3.23;;;2.93;;
16512;SDS011;8369;48.030;11.598;2023-08-30T07:52:42;2.90;;;2.60;;
16512;SDS011;8369;48.030;11.598;2023-08-30T07:55:10;3.00;;;2.70;;
16512;SDS011;8369;48.030;11.598;2023-08-30T07:57:36;3.37;;;2.40;;
16512;SDS011;8369;48.030;11.598;2023-08-30T08:00:03;2.67;;;2.47;;
16512;SDS011;8369;48.030;11.598;2023-08-30T08:02:29;2.73;;;2.47;;
16512;SDS011;8369;48.030;11.598;2023-08-30T08:04:56;3.90;;;2.77;;
16512;SDS011;8369;48.030;11.598;2023-08-30T08:07:22;2.90;;;2.60;;
16512;SDS011;8369;48.030;11.598;2023-08-30T08:09:50;3.23;;;2.70;;
16512;SDS011;8369;48.030;11.598;2023-08-30T08:12:16;2.63;;;2.43;;
16512;SDS011;8369;48.030;11.598;2023-08-30T08:14:43;3.40;;;2.50;;
16512;SDS011;8369;48.030;11.598;2023-08-30T08:17:09;2.70;;;2.50;;
16512;SDS011;8369;48.030;11.598;2023-08-30T08:19:36;2.67;;;2.47;;
16512;SDS011;8369;48.030;11.598;2023-08-30T08:22:05;2.67;;;2.47;;
16512;SDS011;8369;48.030;11.598;2023-08-30T08:24:33;2.83;;;2.50;;
16512;SDS011;8369;48.030;11.598;2023-08-30T08:27:00;3.60;;;2.47;;
16512;SDS011;8369;48.030;11.598;2023-08-30T08:29:29;2.73;;;2.53;;
16512;SDS011;8369;48.030;11.598;2023-08-30T08:31:55;2.83;;;2.17;;
16512;SDS011;8369;48.030;11.598;2023-08-30T08:34:21;3.00;;;2.70;;
16512;SDS011;8369;48.030;11.598;2023-08-30T08:36:47;3.87;;;2.40;;
16512;SDS011;8369;48.030;11.598;2023-08-30T08:39:14;3.07;;;2.57;;
16512;SDS011;8369;48.030;11.598;2023-08-30T08:41:42;3.30;;;2.67;;
16512;SDS011;8369;48.030;11.598;2023-08-30T08:44:10;2.70;;;2.50;;
16512;SDS011;8369;48.030;11.598;2023-08-30T08:46:39;2.63;;;2.43;;
16512;SDS011;8369;48.030;11.598;2023-08-30T08:51:37;2.90;;;2.67;;
16512;SDS011;8369;48.030;11.598;2023-08-30T08:54:04;3.20;;;2.90;;
16512;SDS011;8369;48.030;11.598;2023-08-30T08:56:31;3.87;;;2.90;;
16512;SDS011;8369;48.030;11.598;2023-08-30T08:58:59;3.30;;;3.00;;
16512;SDS011;8369;48.030;11.598;2023-08-30T09:01:28;4.57;;;3.37;;
16512;SDS011;8369;48.030;11.598;2023-08-30T09:03:55;3.60;;;3.30;;
16512;SDS011;8369;48.030;11.598;2023-08-30T09:06:22;5.03;;;3.60;;
16512;SDS011;8369;48.030;11.598;2023-08-30T09:08:48;4.40;;;3.60;;
16512;SDS011;8369;48.030;11.598;2023-08-30T09:11:14;3.53;;;3.23;;
16512;SDS011;8369;48.030;11.598;2023-08-30T09:13:44;3.80;;;3.40;;
16512;SDS011;8369;48.030;11.598;2023-08-30T09:16:14;3.60;;;3.30;;
16512;SDS011;8369;48.030;11.598;2023-08-30T09:18:41;5.47;;;3.70;;
16512;SDS011;8369;48.030;11.598;2023-08-30T09:21:08;3.67;;;3.37;;
16512;SDS011;8369;48.030;11.598;2023-08-30T09:23:36;6.90;;;3.40;;
16512;SDS011;8369;48.030;11.598;2023-08-30T09:26:03;4.83;;;3.30;;
16512;SDS011;8369;48.030;11.598;2023-08-30T09:28:30;3.40;;;3.10;;
16512;SDS011;8369;48.030;11.598;2023-08-30T09:30:59;3.83;;;3.53;;
16512;SDS011;8369;48.030;11.598;2023-08-30T09:33:32;3.57;;;3.10;;
16512;SDS011;8369;48.030;11.598;2023-08-30T09:35:59;4.27;;;3.20;;
16512;SDS011;8369;48.030;11.598;2023-08-30T09:38:26;3.70;;;2.60;;
16512;SDS011;8369;48.030;11.598;2023-08-30T09:41:13;3.67;;;3.20;;
16512;SDS011;8369;48.030;11.598;2023-08-30T09:43:42;4.10;;;3.03;;
16512;SDS011;8369;48.030;11.598;2023-08-30T09:46:09;3.30;;;2.90;;
16512;SDS011;8369;48.030;11.598;2023-08-30T09:48:35;3.17;;;2.87;;
16512;SDS011;8369;48.030;11.598;2023-08-30T09:51:06;3.33;;;3.03;;
16512;SDS011;8369;48.030;11.598;2023-08-30T09:53:37;3.30;;;3.00;;
16512;SDS011;8369;48.030;11.598;2023-08-30T09:56:13;3.20;;;2.90;;
16512;SDS011;8369;48.030;11.598;2023-08-30T09:58:44;2.83;;;2.60;;
16512;SDS011;8369;48.030;11.598;2023-08-30T10:01:11;3.03;;;2.73;;
16512;SDS011;8369;48.030;11.598;2023-08-30T10:03:38;2.80;;;2.60;;
16512;SDS011;8369;48.030;11.598;2023-08-30T10:06:06;5.03;;;2.60;;
16512;SDS011;8369;48.030;11.598;2023-08-30T10:08:34;3.80;;;3.00;;
16512;SDS011;8369;48.030;11.598;2023-08-30T10:11:02;3.00;;;2.50;;
16512;SDS011;8369;48.030;11.598;2023-08-30T10:13:32;6.37;;;3.23;;
16512;SDS011;8369;48.030;11.598;2023-08-30T10:16:01;3.00;;;2.70;;
16512;SDS011;8369;48.030;11.598;2023-08-30T10:18:31;3.57;;;2.77;;
16512;SDS011;8369;48.030;11.598;2023-08-30T10:21:01;2.50;;;2.30;;
16512;SDS011;8369;48.030;11.598;2023-08-30T10:23:32;4.87;;;2.70;;
16512;SDS011;8369;48.030;11.598;2023-08-30T10:26:00;3.10;;;2.57;;
16512;SDS011;8369;48.030;11.598;2023-08-30T10:28:30;3.00;;;2.70;;
16512;SDS011;8369;48.030;11.598;2023-08-30T10:30:58;3.20;;;2.90;;
16512;SDS011;8369;48.030;11.598;2023-08-30T10:33:25;3.33;;;2.53;;
16512;SDS011;8369;48.030;11.598;2023-08-30T10:36:05;4.20;;;2.70;;
16512;SDS011;8369;48.030;11.598;2023-08-30T10:38:32;2.40;;;2.20;;
16512;SDS011;8369;48.030;11.598;2023-08-30T10:41:08;2.27;;;2.07;;
16512;SDS011;8369;48.030;11.598;2023-08-30T10:43:35;4.33;;;2.43;;
16512;SDS011;8369;48.030;11.598;2023-08-30T10:46:03;2.50;;;2.30;;
16512;SDS011;8369;48.030;11.598;2023-08-30T10:48:37;2.60;;;2.40;;
16512;SDS011;8369;48.030;11.598;2023-08-30T10:51:06;2.57;;;2.20;;
16512;SDS011;8369;48.030;11.598;2023-08-30T10:53:58;2.20;;;2.00;;
16512;SDS011;8369;48.030;11.598;2023-08-30T10:56:28;2.45;;;1.92;;
16512;SDS011;8369;48.030;11.598;2023-08-30T10:58:55;2.63;;;2.43;;
16512;SDS011;8369;48.030;11.598;2023-08-30T11:01:22;3.70;;;2.00;;
16512;SDS011;8369;48.030;11.598;2023-08-30T11:03:49;3.17;;;2.87;;
16512;SDS011;8369;48.030;11.598;2023-08-30T11:06:17;2.30;;;2.10;;
16512;SDS011;8369;48.030;11.598;2023-08-30T11:08:43;2.70;;;2.10;;
16512;SDS011;8369;48.030;11.598;2023-08-30T11:11:10;2.83;;;2.07;;
16512;SDS011;8369;48.030;11.598;2023-08-30T11:13:37;2.27;;;2.07;;
16512;SDS011;8369;48.030;11.598;2023-08-30T11:16:03;2.40;;;2.20;;
16512;SDS011;8369;48.030;11.598;2023-08-30T11:18:30;2.20;;;2.00;;
16512;SDS011;8369;48.030;11.598;2023-08-30T11:21:02;2.57;;;2.10;;
16512;SDS011;8369;48.030;11.598;2023-08-30T11:23:28;2.60;;;1.97;;
16512;SDS011;8369;48.030;11.598;2023-08-30T11:25:55;3.57;;;1.93;;
16512;SDS011;8369;48.030;11.598;2023-08-30T11:28:24;2.53;;;2.33;;
16512;SDS011;8369;48.030;11.598;2023-08-30T11:30:54;2.50;;;2.00;;
16512;SDS011;8369;48.030;11.598;2023-08-30T11:33:21;1.80;;;1.70;;
16512;SDS011;8369;48.030;11.598;2023-08-30T11:35:48;3.13;;;1.60;;
16512;SDS011;8369;48.030;11.598;2023-08-30T11:38:17;3.40;;;1.90;;
16512;SDS011;8369;48.030;11.598;2023-08-30T11:40:44;1.70;;;1.60;;
16512;SDS011;8369;48.030;11.598;2023-08-30T11:43:11;2.27;;;1.87;;
16512;SDS011;8369;48.030;11.598;2023-08-30T11:45:37;1.70;;;1.60;;
16512;SDS011;8369;48.030;11.598;2023-08-30T11:48:03;1.90;;;1.70;;
16512;SDS011;8369;48.030;11.598;2023-08-30T11:50:29;2.00;;;1.67;;
16512;SDS011;8369;48.030;11.598;2023-08-30T11:52:56;1.80;;;1.70;;
16512;SDS011;8369;48.030;11.598;2023-08-30T11:55:22;2.13;;;1.77;;
16512;SDS011;8369;48.030;11.598;2023-08-30T11:57:49;5.40;;;2.00;;
16512;SDS011;8369;48.030;11.598;2023-08-30T12:00:18;1.70;;;1.50;;
16512;SDS011;8369;48.030;11.598;2023-08-30T12:02:47;2.47;;;1.80;;
16512;SDS011;8369;48.030;11.598;2023-08-30T12:05:14;1.70;;;1.50;;
16512;SDS011;8369;48.030;11.598;2023-08-30T12:07:40;2.53;;;1.90;;
16512;SDS011;8369;48.030;11.598;2023-08-30T12:10:08;1.73;;;1.63;;
16512;SDS011;8369;48.030;11.598;2023-08-30T12:12:37;1.50;;;1.40;;
16512;SDS011;8369;48.030;11.598;2023-08-30T12:15:09;1.92;;;1.70;;
16512;SDS011;8369;48.030;11.598;2023-08-30T12:17:36;1.50;;;1.40;;
16512;SDS011;8369;48.030;11.598;2023-08-30T12:20:02;1.83;;;1.73;;
16512;SDS011;8369;48.030;11.598;2023-08-30T12:22:38;2.17;;;1.60;;
16512;SDS011;8369;48.030;11.598;2023-08-30T12:27:49;1.50;;;1.40;;
16512;SDS011;8369;48.030;11.598;2023-08-30T12:30:15;1.50;;;1.40;;
16512;SDS011;8369;48.030;11.598;2023-08-30T12:32:48;2.85;;;1.98;;
16512;SDS011;8369;48.030;11.598;2023-08-30T12:35:14;1.50;;;1.40;;
16512;SDS011;8369;48.030;11.598;2023-08-30T12:37:40;2.67;;;1.50;;
16512;SDS011;8369;48.030;11.598;2023-08-30T12:40:06;2.83;;;1.55;;
16512;SDS011;8369;48.030;11.598;2023-08-30T12:42:33;1.48;;;1.20;;
16512;SDS011;8369;48.030;11.598;2023-08-30T12:44:59;2.45;;;1.50;;
16512;SDS011;8369;48.030;11.598;2023-08-30T12:47:26;3.05;;;1.58;;
16512;SDS011;8369;48.030;11.598;2023-08-30T12:49:52;1.55;;;1.45;;
16512;SDS011;8369;48.030;11.598;2023-08-30T12:52:17;3.38;;;1.92;;
16512;SDS011;8369;48.030;11.598;2023-08-30T12:54:44;2.05;;;1.60;;
16512;SDS011;8369;48.030;11.598;2023-08-30T12:57:10;3.95;;;1.30;;
16512;SDS011;8369;48.030;11.598;2023-08-30T12:59:37;1.60;;;1.35;;
16512;SDS011;8369;48.030;11.598;2023-08-30T13:02:03;2.13;;;1.33;;
16512;SDS011;8369;48.030;11.598;2023-08-30T13:04:29;1.73;;;1.45;;
16512;SDS011;8369;48.030;11.598;2023-08-30T13:06:54;5.32;;;1.50;;
16512;SDS011;8369;48.030;11.598;2023-08-30T13:09:20;1.70;;;1.60;;
16512;SDS011;8369;48.030;11.598;2023-08-30T13:11:46;3.28;;;1.55;;
16512;SDS011;8369;48.030;11.598;2023-08-30T13:14:12;1.50;;;1.35;;
16512;SDS011;8369;48.030;11.598;2023-08-30T13:16:38;2.72;;;1.40;;
16512;SDS011;8369;48.030;11.598;2023-08-30T13:19:04;1.90;;;1.60;;
16512;SDS011;8369;48.030;11.598;2023-08-30T13:21:31;1.63;;;1.52;;
16512;SDS011;8369;48.030;11.598;2023-08-30T13:23:57;1.73;;;1.48;;
16512;SDS011;8369;48.030;11.598;2023-08-30T13:26:23;2.53;;;1.45;;
16512;SDS011;8369;48.030;11.598;2023-08-30T13:28:49;1.70;;;1.60;;
16512;SDS011;8369;48.030;11.598;2023-08-30T13:31:15;1.50;;;1.40;;
16512;SDS011;8369;48.030;11.598;2023-08-30T13:33:42;2.08;;;1.50;;
16512;SDS011;8369;48.030;11.598;2023-08-30T13:36:11;1.58;;;1.48;;
16512;SDS011;8369;48.030;11.598;2023-08-30T13:38:37;2.13;;;1.77;;
16512;SDS011;8369;48.030;11.598;2023-08-30T13:41:04;1.50;;;1.40;;
16512;SDS011;8369;48.030;11.598;2023-08-30T13:43:30;2.85;;;1.60;;
16512;SDS011;8369;48.030;11.598;2023-08-30T13:45:57;1.83;;;1.73;;
16512;SDS011;8369;48.030;11.598;2023-08-30T13:48:24;1.70;;;1.60;;
16512;SDS011;8369;48.030;11.598;2023-08-30T13:50:51;1.60;;;1.50;;
16512;SDS011;8369;48.030;11.598;2023-08-30T13:53:17;1.58;;;1.48;;
16512;SDS011;8369;48.030;11.598;2023-08-30T13:55:46;3.35;;;1.67;;
16512;SDS011;8369;48.030;11.598;2023-08-30T13:58:14;1.50;;;1.40;;
16512;SDS011;8369;48.030;11.598;2023-08-30T14:00:40;1.90;;;1.80;;
16512;SDS011;8369;48.030;11.598;2023-08-30T14:03:07;1.53;;;1.43;;
16512;SDS011;8369;48.030;11.598;2023-08-30T14:05:33;2.10;;;1.70;;
16512;SDS011;8369;48.030;11.598;2023-08-30T14:07:59;2.63;;;1.87;;
16512;SDS011;8369;48.030;11.598;2023-08-30T14:10:26;1.90;;;1.70;;
16512;SDS011;8369;48.030;11.598;2023-08-30T14:12:53;2.13;;;1.90;;
16512;SDS011;8369;48.030;11.598;2023-08-30T14:15:20;2.00;;;1.80;;
16512;SDS011;8369;48.030;11.598;2023-08-30T14:17:46;2.30;;;2.10;;
16512;SDS011;8369;48.030;11.598;2023-08-30T14:20:12;2.40;;;2.10;;
16512;SDS011;8369;48.030;11.598;2023-08-30T14:22:39;2.50;;;2.20;;
16512;SDS011;8369;48.030;11.598;2023-08-30T14:25:05;2.33;;;2.13;;
16512;SDS011;8369;48.030;11.598;2023-08-30T14:27:31;3.37;;;2.17;;
16512;SDS011;8369;48.030;11.598;2023-08-30T14:29:58;2.67;;;2.30;;
16512;SDS011;8369;48.030;11.598;2023-08-30T14:32:25;2.20;;;2.00;;
16512;SDS011;8369;48.030;11.598;2023-08-30T14:34:52;2.40;;;2.20;;
16512;SDS011;8369;48.030;11.598;2023-08-30T14:37:18;2.37;;;2.17;;
16512;SDS011;8369;48.030;11.598;2023-08-30T14:39:45;3.20;;;2.37;;
16512;SDS011;8369;48.030;11.598;2023-08-30T14:42:11;2.40;;;2.10;;
16512;SDS011;8369;48.030;11.598;2023-08-30T14:44:51;2.50;;;2.30;;
16512;SDS011;8369;48.030;11.598;2023-08-30T14:47:18;2.27;;;2.07;;
16512;SDS011;8369;48.030;11.598;2023-08-30T14:49:55;2.93;;;2.20;;
16512;SDS011;8369;48.030;11.598;2023-08-30T14:52:21;3.17;;;2.60;;
16512;SDS011;8369;48.030;11.598;2023-08-30T14:54:47;2.30;;;2.10;;
16512;SDS011;8369;48.030;11.598;2023-08-30T14:57:13;2.00;;;1.90;;
16512;SDS011;8369;48.030;11.598;2023-08-30T14:59:40;2.40;;;2.20;;